sensor_id;sensor_type;location;lat;lon;timestamp;temperature;humidity
5210;DHT22;2624;48.048;11.706;2023-03-19T00:01:08;9.90;99.90
5210;DHT22;2624;48.048;11.706;2023-03-19T00:06:11;9.60;99.90
5210;DHT22;2624;48.048;11.706;2023-03-19T00:11:13;8.90;99.90
5210;DHT22;2624;48.048;11.706;2023-03-19T00:16:15;9.30;99.90
5210;DHT22;2624;48.048;11.706;2023-03-19T00:21:18;9.20;99.90
5210;DHT22;2624;48.048;11.706;2023-03-19T00:26:20;8.90;99.90
5210;DHT22;2624;48.048;11.706;2023-03-19T00:31:22;8.60;99.90
5210;DHT22;2624;48.048;11.706;2023-03-19T00:36:27;8.20;99.90
5210;DHT22;2624;48.048;11.706;2023-03-19T00:41:29;7.90;99.90
5210;DHT22;2624;48.048;11.706;2023-03-19T00:46:31;8.00;99.90
5210;DHT22;2624;48.048;11.706;2023-03-19T00:51:35;7.90;99.90
5210;DHT22;2624;48.048;11.706;2023-03-19T00:56:37;8.10;99.90
5210;DHT22;2624;48.048;11.706;2023-03-19T01:01:38;8.20;99.90
5210;DHT22;2624;48.048;11.706;2023-03-19T01:06:41;7.90;99.90
5210;DHT22;2624;48.048;11.706;2023-03-19T01:11:43;7.90;99.90
5210;DHT22;2624;48.048;11.706;2023-03-19T01:16:45;8.50;99.90
5210;DHT22;2624;48.048;11.706;2023-03-19T01:21:48;8.30;99.90
5210;DHT22;2624;48.048;11.706;2023-03-19T01:26:50;7.90;99.90
5210;DHT22;2624;48.048;11.706;2023-03-19T01:31:52;7.90;99.90
5210;DHT22;2624;48.048;11.706;2023-03-19T01:36:55;7.50;99.90
5210;DHT22;2624;48.048;11.706;2023-03-19T01:42:00;7.40;99.90
5210;DHT22;2624;48.048;11.706;2023-03-19T01:47:05;7.40;99.90
5210;DHT22;2624;48.048;11.706;2023-03-19T01:52:10;8.10;99.90
5210;DHT22;2624;48.048;11.706;2023-03-19T01:57:13;8.50;99.90
5210;DHT22;2624;48.048;11.706;2023-03-19T02:02:21;8.50;99.90
5210;DHT22;2624;48.048;11.706;2023-03-19T02:07:26;8.50;99.90
5210;DHT22;2624;48.048;11.706;2023-03-19T02:12:29;7.90;99.90
5210;DHT22;2624;48.048;11.706;2023-03-19T02:17:31;7.70;99.90
5210;DHT22;2624;48.048;11.706;2023-03-19T02:22:35;8.10;99.90
5210;DHT22;2624;48.048;11.706;2023-03-19T02:27:41;7.80;99.90
5210;DHT22;2624;48.048;11.706;2023-03-19T02:32:43;7.70;99.90
5210;DHT22;2624;48.048;11.706;2023-03-19T02:37:46;7.00;99.90
5210;DHT22;2624;48.048;11.706;2023-03-19T02:42:49;7.20;99.90
5210;DHT22;2624;48.048;11.706;2023-03-19T02:47:51;6.80;99.90
5210;DHT22;2624;48.048;11.706;2023-03-19T02:52:52;7.50;99.90
5210;DHT22;2624;48.048;11.706;2023-03-19T02:57:56;7.80;99.90
5210;DHT22;2624;48.048;11.706;2023-03-19T03:02:58;8.00;99.90
5210;DHT22;2624;48.048;11.706;2023-03-19T03:08:00;8.10;99.90
5210;DHT22;2624;48.048;11.706;2023-03-19T03:13:03;7.30;99.90
5210;DHT22;2624;48.048;11.706;2023-03-19T03:18:06;7.10;99.90
5210;DHT22;2624;48.048;11.706;2023-03-19T03:23:08;7.60;99.90
5210;DHT22;2624;48.048;11.706;2023-03-19T03:28:12;7.40;99.90
5210;DHT22;2624;48.048;11.706;2023-03-19T03:33:13;7.00;99.90
5210;DHT22;2624;48.048;11.706;2023-03-19T03:38:16;6.40;99.90
5210;DHT22;2624;48.048;11.706;2023-03-19T03:43:20;6.60;99.90
5210;DHT22;2624;48.048;11.706;2023-03-19T03:48:22;7.10;99.90
5210;DHT22;2624;48.048;11.706;2023-03-19T03:53:24;7.20;99.90
5210;DHT22;2624;48.048;11.706;2023-03-19T03:58:27;6.80;99.90
5210;DHT22;2624;48.048;11.706;2023-03-19T04:03:28;6.90;99.90
5210;DHT22;2624;48.048;11.706;2023-03-19T04:08:30;6.50;99.90
5210;DHT22;2624;48.048;11.706;2023-03-19T04:13:34;6.40;99.90
5210;DHT22;2624;48.048;11.706;2023-03-19T04:18:37;6.80;99.90
5210;DHT22;2624;48.048;11.706;2023-03-19T04:23:39;6.90;99.90
5210;DHT22;2624;48.048;11.706;2023-03-19T04:28:42;7.10;99.90
5210;DHT22;2624;48.048;11.706;2023-03-19T04:33:44;7.40;99.90
5210;DHT22;2624;48.048;11.706;2023-03-19T04:38:46;7.10;99.90
5210;DHT22;2624;48.048;11.706;2023-03-19T04:43:49;6.40;99.90
5210;DHT22;2624;48.048;11.706;2023-03-19T04:48:50;6.20;99.90
5210;DHT22;2624;48.048;11.706;2023-03-19T04:53:52;6.20;99.90
5210;DHT22;2624;48.048;11.706;2023-03-19T04:58:56;6.40;99.90
5210;DHT22;2624;48.048;11.706;2023-03-19T05:03:57;6.30;99.90
5210;DHT22;2624;48.048;11.706;2023-03-19T05:08:59;6.30;99.90
5210;DHT22;2624;48.048;11.706;2023-03-19T05:14:03;6.30;99.90
5210;DHT22;2624;48.048;11.706;2023-03-19T05:19:05;6.30;99.90
5210;DHT22;2624;48.048;11.706;2023-03-19T05:24:06;6.60;99.90
5210;DHT22;2624;48.048;11.706;2023-03-19T05:29:09;6.40;99.90
5210;DHT22;2624;48.048;11.706;2023-03-19T05:34:11;6.60;99.90
5210;DHT22;2624;48.048;11.706;2023-03-19T05:39:13;6.40;99.90
5210;DHT22;2624;48.048;11.706;2023-03-19T05:44:16;6.70;99.90
5210;DHT22;2624;48.048;11.706;2023-03-19T05:49:18;6.80;99.90
5210;DHT22;2624;48.048;11.706;2023-03-19T05:54:20;6.80;99.90
5210;DHT22;2624;48.048;11.706;2023-03-19T05:59:23;6.60;99.90
5210;DHT22;2624;48.048;11.706;2023-03-19T06:04:25;6.70;99.90
5210;DHT22;2624;48.048;11.706;2023-03-19T06:09:27;6.80;99.90
5210;DHT22;2624;48.048;11.706;2023-03-19T06:14:30;6.90;99.90
5210;DHT22;2624;48.048;11.706;2023-03-19T06:19:32;7.00;99.90
5210;DHT22;2624;48.048;11.706;2023-03-19T06:24:33;7.00;99.90
5210;DHT22;2624;48.048;11.706;2023-03-19T06:29:37;7.10;99.90
5210;DHT22;2624;48.048;11.706;2023-03-19T06:34:39;7.10;99.90
5210;DHT22;2624;48.048;11.706;2023-03-19T06:39:41;7.20;99.90
5210;DHT22;2624;48.048;11.706;2023-03-19T06:44:44;7.20;99.90
5210;DHT22;2624;48.048;11.706;2023-03-19T06:49:46;7.30;99.90
5210;DHT22;2624;48.048;11.706;2023-03-19T06:54:47;7.30;99.90
5210;DHT22;2624;48.048;11.706;2023-03-19T06:59:50;7.30;99.90
5210;DHT22;2624;48.048;11.706;2023-03-19T07:04:52;7.30;99.90
5210;DHT22;2624;48.048;11.706;2023-03-19T07:09:54;7.40;99.90
5210;DHT22;2624;48.048;11.706;2023-03-19T07:14:57;7.40;99.90
5210;DHT22;2624;48.048;11.706;2023-03-19T07:19:59;7.40;99.90
5210;DHT22;2624;48.048;11.706;2023-03-19T07:25:01;7.50;99.90
5210;DHT22;2624;48.048;11.706;2023-03-19T07:30:04;7.50;99.90
5210;DHT22;2624;48.048;11.706;2023-03-19T07:35:07;7.50;99.90
5210;DHT22;2624;48.048;11.706;2023-03-19T07:40:10;7.50;99.90
5210;DHT22;2624;48.048;11.706;2023-03-19T07:45:13;7.60;99.90
5210;DHT22;2624;48.048;11.706;2023-03-19T07:50:15;7.60;99.90
5210;DHT22;2624;48.048;11.706;2023-03-19T07:55:17;7.60;99.90
5210;DHT22;2624;48.048;11.706;2023-03-19T08:00:20;7.60;99.90
5210;DHT22;2624;48.048;11.706;2023-03-19T08:05:22;7.70;99.90
5210;DHT22;2624;48.048;11.706;2023-03-19T08:10:24;7.70;99.90
5210;DHT22;2624;48.048;11.706;2023-03-19T08:15:28;7.70;99.90
5210;DHT22;2624;48.048;11.706;2023-03-19T08:20:29;7.80;99.90
5210;DHT22;2624;48.048;11.706;2023-03-19T08:25:31;7.80;99.90
5210;DHT22;2624;48.048;11.706;2023-03-19T08:30:35;7.80;99.90
5210;DHT22;2624;48.048;11.706;2023-03-19T08:35:37;7.90;99.90
5210;DHT22;2624;48.048;11.706;2023-03-19T08:40:39;7.90;99.90
5210;DHT22;2624;48.048;11.706;2023-03-19T08:45:42;8.00;99.90
5210;DHT22;2624;48.048;11.706;2023-03-19T08:50:44;8.00;99.90
5210;DHT22;2624;48.048;11.706;2023-03-19T08:55:50;8.10;99.90
5210;DHT22;2624;48.048;11.706;2023-03-19T09:00:59;8.00;99.90
5210;DHT22;2624;48.048;11.706;2023-03-19T09:06:03;8.10;99.90
5210;DHT22;2624;48.048;11.706;2023-03-19T09:11:06;8.10;99.90
5210;DHT22;2624;48.048;11.706;2023-03-19T09:16:09;8.20;99.90
5210;DHT22;2624;48.048;11.706;2023-03-19T09:21:11;8.20;99.90
5210;DHT22;2624;48.048;11.706;2023-03-19T09:26:13;8.20;99.90
5210;DHT22;2624;48.048;11.706;2023-03-19T09:31:16;8.30;99.90
5210;DHT22;2624;48.048;11.706;2023-03-19T09:36:17;8.30;99.90
5210;DHT22;2624;48.048;11.706;2023-03-19T09:41:28;8.40;99.90
5210;DHT22;2624;48.048;11.706;2023-03-19T09:46:39;8.40;99.90
5210;DHT22;2624;48.048;11.706;2023-03-19T09:51:47;8.50;99.90
5210;DHT22;2624;48.048;11.706;2023-03-19T09:56:50;8.50;99.90
5210;DHT22;2624;48.048;11.706;2023-03-19T10:02:00;8.70;99.90
5210;DHT22;2624;48.048;11.706;2023-03-19T10:07:14;8.60;99.90
5210;DHT22;2624;48.048;11.706;2023-03-19T10:12:26;8.70;99.90
5210;DHT22;2624;48.048;11.706;2023-03-19T10:17:33;8.70;99.90
5210;DHT22;2624;48.048;11.706;2023-03-19T10:22:37;8.80;99.90
5210;DHT22;2624;48.048;11.706;2023-03-19T10:27:44;8.90;99.90
5210;DHT22;2624;48.048;11.706;2023-03-19T10:32:52;8.90;99.90
5210;DHT22;2624;48.048;11.706;2023-03-19T10:37:56;9.00;99.90
5210;DHT22;2624;48.048;11.706;2023-03-19T10:43:12;9.00;99.90
5210;DHT22;2624;48.048;11.706;2023-03-19T10:48:18;9.10;99.90
5210;DHT22;2624;48.048;11.706;2023-03-19T10:53:30;9.10;99.90
5210;DHT22;2624;48.048;11.706;2023-03-19T10:58:34;9.10;99.90
5210;DHT22;2624;48.048;11.706;2023-03-19T11:03:39;9.20;99.90
5210;DHT22;2624;48.048;11.706;2023-03-19T11:08:53;9.30;99.90
5210;DHT22;2624;48.048;11.706;2023-03-19T11:13:56;9.20;99.90
5210;DHT22;2624;48.048;11.706;2023-03-19T11:18:59;9.20;99.90
5210;DHT22;2624;48.048;11.706;2023-03-19T11:24:03;9.30;99.90
5210;DHT22;2624;48.048;11.706;2023-03-19T11:29:11;9.30;99.90
5210;DHT22;2624;48.048;11.706;2023-03-19T11:34:20;9.40;99.90
5210;DHT22;2624;48.048;11.706;2023-03-19T11:39:27;9.40;99.90
5210;DHT22;2624;48.048;11.706;2023-03-19T11:44:35;9.40;99.90
5210;DHT22;2624;48.048;11.706;2023-03-19T11:49:51;9.60;99.90
5210;DHT22;2624;48.048;11.706;2023-03-19T11:55:04;9.60;99.90
5210;DHT22;2624;48.048;11.706;2023-03-19T12:00:19;9.90;99.90
5210;DHT22;2624;48.048;11.706;2023-03-19T12:05:30;9.80;99.90
5210;DHT22;2624;48.048;11.706;2023-03-19T12:10:44;10.20;99.90
5210;DHT22;2624;48.048;11.706;2023-03-19T12:15:57;10.00;99.90
5210;DHT22;2624;48.048;11.706;2023-03-19T12:21:05;9.90;99.90
5210;DHT22;2624;48.048;11.706;2023-03-19T12:26:18;10.00;99.90
5210;DHT22;2624;48.048;11.706;2023-03-19T12:31:33;10.10;99.90
5210;DHT22;2624;48.048;11.706;2023-03-19T12:36:47;10.10;99.90
5210;DHT22;2624;48.048;11.706;2023-03-19T12:41:50;10.30;99.90
5210;DHT22;2624;48.048;11.706;2023-03-19T12:46:56;10.30;99.90
5210;DHT22;2624;48.048;11.706;2023-03-19T12:52:07;10.40;99.90
5210;DHT22;2624;48.048;11.706;2023-03-19T12:57:16;10.70;99.90
5210;DHT22;2624;48.048;11.706;2023-03-19T13:02:23;11.10;99.90
5210;DHT22;2624;48.048;11.706;2023-03-19T13:07:30;11.30;99.90
5210;DHT22;2624;48.048;11.706;2023-03-19T13:12:36;10.90;99.90
5210;DHT22;2624;48.048;11.706;2023-03-19T13:17:45;11.00;99.90
5210;DHT22;2624;48.048;11.706;2023-03-19T13:22:54;11.00;99.90
5210;DHT22;2624;48.048;11.706;2023-03-19T13:27:56;10.90;99.90
5210;DHT22;2624;48.048;11.706;2023-03-19T13:33:03;11.00;99.90
5210;DHT22;2624;48.048;11.706;2023-03-19T13:38:18;11.10;99.90
5210;DHT22;2624;48.048;11.706;2023-03-19T13:43:39;11.10;99.90
5210;DHT22;2624;48.048;11.706;2023-03-19T13:48:50;11.50;99.90
5210;DHT22;2624;48.048;11.706;2023-03-19T13:53:54;11.30;99.90
5210;DHT22;2624;48.048;11.706;2023-03-19T13:59:23;11.30;99.90
5210;DHT22;2624;48.048;11.706;2023-03-19T14:04:28;11.30;99.90
5210;DHT22;2624;48.048;11.706;2023-03-19T14:09:36;11.30;99.90
5210;DHT22;2624;48.048;11.706;2023-03-19T14:14:40;11.20;99.90
5210;DHT22;2624;48.048;11.706;2023-03-19T14:19:43;11.40;99.90
5210;DHT22;2624;48.048;11.706;2023-03-19T14:24:55;11.30;99.90
5210;DHT22;2624;48.048;11.706;2023-03-19T14:30:14;11.30;99.90
5210;DHT22;2624;48.048;11.706;2023-03-19T14:35:19;11.60;99.90
5210;DHT22;2624;48.048;11.706;2023-03-19T14:40:25;11.70;99.90
5210;DHT22;2624;48.048;11.706;2023-03-19T14:45:44;11.80;99.90
5210;DHT22;2624;48.048;11.706;2023-03-19T14:50:57;12.00;99.90
5210;DHT22;2624;48.048;11.706;2023-03-19T14:56:11;11.90;99.90
5210;DHT22;2624;48.048;11.706;2023-03-19T15:01:13;12.10;99.90
5210;DHT22;2624;48.048;11.706;2023-03-19T15:06:15;12.00;99.90
5210;DHT22;2624;48.048;11.706;2023-03-19T15:11:41;12.20;99.90
5210;DHT22;2624;48.048;11.706;2023-03-19T15:16:53;12.20;99.90
5210;DHT22;2624;48.048;11.706;2023-03-19T15:22:12;12.20;99.90
5210;DHT22;2624;48.048;11.706;2023-03-19T15:27:18;12.20;99.90
5210;DHT22;2624;48.048;11.706;2023-03-19T15:32:34;12.20;99.90
5210;DHT22;2624;48.048;11.706;2023-03-19T15:37:40;11.90;99.90
5210;DHT22;2624;48.048;11.706;2023-03-19T15:42:46;12.00;99.90
5210;DHT22;2624;48.048;11.706;2023-03-19T15:47:51;12.10;99.90
5210;DHT22;2624;48.048;11.706;2023-03-19T15:52:58;11.90;99.90
5210;DHT22;2624;48.048;11.706;2023-03-19T15:58:06;12.10;99.90
5210;DHT22;2624;48.048;11.706;2023-03-19T16:03:15;11.90;99.90
5210;DHT22;2624;48.048;11.706;2023-03-19T16:08:20;12.00;99.90
5210;DHT22;2624;48.048;11.706;2023-03-19T16:13:28;12.20;99.90
5210;DHT22;2624;48.048;11.706;2023-03-19T16:18:40;12.20;99.90
5210;DHT22;2624;48.048;11.706;2023-03-19T16:23:44;12.20;99.90
5210;DHT22;2624;48.048;11.706;2023-03-19T16:28:58;12.20;99.90
5210;DHT22;2624;48.048;11.706;2023-03-19T16:34:01;12.10;99.90
5210;DHT22;2624;48.048;11.706;2023-03-19T16:39:25;12.10;99.90
5210;DHT22;2624;48.048;11.706;2023-03-19T16:44:33;11.90;99.90
5210;DHT22;2624;48.048;11.706;2023-03-19T16:49:35;11.90;99.90
5210;DHT22;2624;48.048;11.706;2023-03-19T16:54:37;11.80;99.90
5210;DHT22;2624;48.048;11.706;2023-03-19T16:59:40;11.80;99.90
5210;DHT22;2624;48.048;11.706;2023-03-19T17:04:43;11.80;99.90
5210;DHT22;2624;48.048;11.706;2023-03-19T17:09:45;11.70;99.90
5210;DHT22;2624;48.048;11.706;2023-03-19T17:14:49;11.60;99.90
5210;DHT22;2624;48.048;11.706;2023-03-19T17:19:52;11.60;99.90
5210;DHT22;2624;48.048;11.706;2023-03-19T17:24:53;11.50;99.90
5210;DHT22;2624;48.048;11.706;2023-03-19T17:29:57;11.50;99.90
5210;DHT22;2624;48.048;11.706;2023-03-19T17:34:58;11.50;99.90
5210;DHT22;2624;48.048;11.706;2023-03-19T17:40:00;11.50;99.90
5210;DHT22;2624;48.048;11.706;2023-03-19T17:45:05;11.40;99.90
5210;DHT22;2624;48.048;11.706;2023-03-19T17:50:14;11.40;99.90
5210;DHT22;2624;48.048;11.706;2023-03-19T17:55:18;11.30;99.90
5210;DHT22;2624;48.048;11.706;2023-03-19T18:00:23;11.20;99.90
5210;DHT22;2624;48.048;11.706;2023-03-19T18:05:25;11.10;99.90
5210;DHT22;2624;48.048;11.706;2023-03-19T18:10:27;10.90;99.90
5210;DHT22;2624;48.048;11.706;2023-03-19T18:15:31;10.80;99.90
5210;DHT22;2624;48.048;11.706;2023-03-19T18:20:36;11.00;99.90
5210;DHT22;2624;48.048;11.706;2023-03-19T18:25:38;11.10;99.90
5210;DHT22;2624;48.048;11.706;2023-03-19T18:30:42;10.90;99.90
5210;DHT22;2624;48.048;11.706;2023-03-19T18:35:45;10.80;99.90
5210;DHT22;2624;48.048;11.706;2023-03-19T18:40:48;10.50;99.90
5210;DHT22;2624;48.048;11.706;2023-03-19T18:45:52;10.30;99.90
5210;DHT22;2624;48.048;11.706;2023-03-19T18:50:54;10.20;99.90
5210;DHT22;2624;48.048;11.706;2023-03-19T18:55:56;10.20;99.90
5210;DHT22;2624;48.048;11.706;2023-03-19T19:00:59;10.20;99.90
5210;DHT22;2624;48.048;11.706;2023-03-19T19:06:04;10.10;99.90
5210;DHT22;2624;48.048;11.706;2023-03-19T19:11:05;10.10;99.90
5210;DHT22;2624;48.048;11.706;2023-03-19T19:16:15;10.00;99.90
5210;DHT22;2624;48.048;11.706;2023-03-19T19:21:18;10.00;99.90
5210;DHT22;2624;48.048;11.706;2023-03-19T19:26:22;9.90;99.90
5210;DHT22;2624;48.048;11.706;2023-03-19T19:31:27;9.90;99.90
5210;DHT22;2624;48.048;11.706;2023-03-19T19:36:29;9.70;99.90
5210;DHT22;2624;48.048;11.706;2023-03-19T19:41:31;9.60;99.90
5210;DHT22;2624;48.048;11.706;2023-03-19T19:46:35;9.60;99.90
5210;DHT22;2624;48.048;11.706;2023-03-19T19:51:37;9.60;99.90
5210;DHT22;2624;48.048;11.706;2023-03-19T19:56:39;9.60;99.90
5210;DHT22;2624;48.048;11.706;2023-03-19T20:01:42;9.60;99.90
5210;DHT22;2624;48.048;11.706;2023-03-19T20:06:44;9.50;99.90
5210;DHT22;2624;48.048;11.706;2023-03-19T20:11:46;9.50;99.90
5210;DHT22;2624;48.048;11.706;2023-03-19T20:16:50;9.50;99.90
5210;DHT22;2624;48.048;11.706;2023-03-19T20:21:51;9.40;99.90
5210;DHT22;2624;48.048;11.706;2023-03-19T20:26:53;9.50;99.90
5210;DHT22;2624;48.048;11.706;2023-03-19T20:31:58;9.90;99.90
5210;DHT22;2624;48.048;11.706;2023-03-19T20:37:00;9.80;99.90
5210;DHT22;2624;48.048;11.706;2023-03-19T20:42:02;9.80;99.90
5210;DHT22;2624;48.048;11.706;2023-03-19T20:47:12;9.90;99.90
5210;DHT22;2624;48.048;11.706;2023-03-19T20:52:15;9.80;99.90
5210;DHT22;2624;48.048;11.706;2023-03-19T20:57:20;9.80;99.90
5210;DHT22;2624;48.048;11.706;2023-03-19T21:02:24;9.80;99.90
5210;DHT22;2624;48.048;11.706;2023-03-19T21:07:28;9.80;99.90
5210;DHT22;2624;48.048;11.706;2023-03-19T21:12:33;9.80;99.90
5210;DHT22;2624;48.048;11.706;2023-03-19T21:17:36;9.80;99.90
5210;DHT22;2624;48.048;11.706;2023-03-19T21:22:38;9.90;99.90
5210;DHT22;2624;48.048;11.706;2023-03-19T21:27:45;9.80;99.90
5210;DHT22;2624;48.048;11.706;2023-03-19T21:32:48;9.70;99.90
5210;DHT22;2624;48.048;11.706;2023-03-19T21:37:52;9.80;99.90
5210;DHT22;2624;48.048;11.706;2023-03-19T21:42:57;9.70;99.90
5210;DHT22;2624;48.048;11.706;2023-03-19T21:48:20;9.80;99.90
5210;DHT22;2624;48.048;11.706;2023-03-19T21:53:23;9.70;99.90
5210;DHT22;2624;48.048;11.706;2023-03-19T21:58:28;9.70;99.90
5210;DHT22;2624;48.048;11.706;2023-03-19T22:03:33;9.70;99.90
5210;DHT22;2624;48.048;11.706;2023-03-19T22:08:35;9.80;99.90
5210;DHT22;2624;48.048;11.706;2023-03-19T22:13:37;9.80;99.90
5210;DHT22;2624;48.048;11.706;2023-03-19T22:18:41;9.70;99.90
5210;DHT22;2624;48.048;11.706;2023-03-19T22:23:44;9.70;99.90
5210;DHT22;2624;48.048;11.706;2023-03-19T22:28:46;9.70;99.90
5210;DHT22;2624;48.048;11.706;2023-03-19T22:33:49;9.70;99.90
5210;DHT22;2624;48.048;11.706;2023-03-19T22:38:51;9.60;99.90
5210;DHT22;2624;48.048;11.706;2023-03-19T22:43:53;9.60;99.90
5210;DHT22;2624;48.048;11.706;2023-03-19T22:48:56;9.70;99.90
5210;DHT22;2624;48.048;11.706;2023-03-19T22:53:58;9.60;99.90
5210;DHT22;2624;48.048;11.706;2023-03-19T22:59:00;9.60;99.90
5210;DHT22;2624;48.048;11.706;2023-03-19T23:04:16;9.60;99.90
5210;DHT22;2624;48.048;11.706;2023-03-19T23:09:22;9.60;99.90
5210;DHT22;2624;48.048;11.706;2023-03-19T23:14:24;9.60;99.90
5210;DHT22;2624;48.048;11.706;2023-03-19T23:19:29;9.60;99.90
5210;DHT22;2624;48.048;11.706;2023-03-19T23:24:32;9.40;99.90
5210;DHT22;2624;48.048;11.706;2023-03-19T23:29:36;9.40;99.90
5210;DHT22;2624;48.048;11.706;2023-03-19T23:34:43;9.00;99.90
5210;DHT22;2624;48.048;11.706;2023-03-19T23:39:44;8.90;99.90
5210;DHT22;2624;48.048;11.706;2023-03-19T23:44:47;8.90;99.90
5210;DHT22;2624;48.048;11.706;2023-03-19T23:49:50;8.90;99.90
5210;DHT22;2624;48.048;11.706;2023-03-19T23:54:52;8.80;99.90
5210;DHT22;2624;48.048;11.706;2023-03-19T23:59:53;8.80;99.90
